sensor_id;sensor_type;location;lat;lon;timestamp;pressure;altitude;pressure_sealevel;temperature;humidity
11525;BME280;5819;49.648;8.330;2022-11-23T00:00:39;98979.75;;;5.33;100.00
11525;BME280;5819;49.648;8.330;2022-11-23T00:03:11;98983.91;;;5.36;100.00
11525;BME280;5819;49.648;8.330;2022-11-23T00:05:40;98976.88;;;5.39;100.00
11525;BME280;5819;49.648;8.330;2022-11-23T00:08:10;98974.31;;;5.39;100.00
11525;BME280;5819;49.648;8.330;2022-11-23T00:10:37;98981.34;;;5.36;100.00
11525;BME280;5819;49.648;8.330;2022-11-23T00:13:05;98974.13;;;5.24;100.00
11525;BME280;5819;49.648;8.330;2022-11-23T00:15:33;98978.44;;;5.23;100.00
11525;BME280;5819;49.648;8.330;2022-11-23T00:18:01;98972.13;;;5.30;100.00
11525;BME280;5819;49.648;8.330;2022-11-23T00:20:29;98957.63;;;5.28;100.00
11525;BME280;5819;49.648;8.330;2022-11-23T00:22:57;98957.78;;;5.25;100.00
11525;BME280;5819;49.648;8.330;2022-11-23T00:25:26;98966.47;;;5.22;100.00
11525;BME280;5819;49.648;8.330;2022-11-23T00:27:53;98970.59;;;5.26;100.00
11525;BME280;5819;49.648;8.330;2022-11-23T00:30:21;98965.19;;;5.32;100.00
11525;BME280;5819;49.648;8.330;2022-11-23T00:32:51;98966.44;;;5.42;100.00
11525;BME280;5819;49.648;8.330;2022-11-23T00:35:19;98969.59;;;5.49;100.00
11525;BME280;5819;49.648;8.330;2022-11-23T00:37:46;98968.69;;;5.50;100.00
11525;BME280;5819;49.648;8.330;2022-11-23T00:40:15;98970.09;;;5.57;100.00
11525;BME280;5819;49.648;8.330;2022-11-23T00:42:44;98968.97;;;5.62;100.00
11525;BME280;5819;49.648;8.330;2022-11-23T00:45:12;98969.66;;;5.66;100.00
11525;BME280;5819;49.648;8.330;2022-11-23T00:47:40;98959.28;;;5.68;100.00
11525;BME280;5819;49.648;8.330;2022-11-23T00:50:08;98960.69;;;5.75;100.00
11525;BME280;5819;49.648;8.330;2022-11-23T00:52:36;98968.50;;;5.73;100.00
11525;BME280;5819;49.648;8.330;2022-11-23T00:55:04;98965.16;;;5.71;100.00
11525;BME280;5819;49.648;8.330;2022-11-23T00:57:32;98963.47;;;5.70;100.00
11525;BME280;5819;49.648;8.330;2022-11-23T01:00:03;98973.31;;;5.81;100.00
11525;BME280;5819;49.648;8.330;2022-11-23T01:02:33;98978.25;;;5.66;100.00
11525;BME280;5819;49.648;8.330;2022-11-23T01:05:01;98983.69;;;5.60;100.00
11525;BME280;5819;49.648;8.330;2022-11-23T01:07:29;98978.44;;;5.62;100.00
11525;BME280;5819;49.648;8.330;2022-11-23T01:09:57;98981.81;;;5.64;100.00
11525;BME280;5819;49.648;8.330;2022-11-23T01:12:25;98987.97;;;5.61;100.00
11525;BME280;5819;49.648;8.330;2022-11-23T01:14:54;98987.72;;;5.66;100.00
11525;BME280;5819;49.648;8.330;2022-11-23T01:17:23;98992.06;;;5.65;100.00
11525;BME280;5819;49.648;8.330;2022-11-23T01:19:51;98994.56;;;5.67;100.00
11525;BME280;5819;49.648;8.330;2022-11-23T01:22:19;98993.63;;;5.70;100.00
11525;BME280;5819;49.648;8.330;2022-11-23T01:24:48;98993.06;;;5.82;100.00
11525;BME280;5819;49.648;8.330;2022-11-23T01:27:17;98989.50;;;5.84;100.00
11525;BME280;5819;49.648;8.330;2022-11-23T01:29:45;98994.72;;;5.83;100.00
11525;BME280;5819;49.648;8.330;2022-11-23T01:32:12;98997.25;;;5.84;100.00
11525;BME280;5819;49.648;8.330;2022-11-23T01:34:41;98992.00;;;5.86;100.00
11525;BME280;5819;49.648;8.330;2022-11-23T01:37:09;98994.41;;;5.90;100.00
11525;BME280;5819;49.648;8.330;2022-11-23T01:39:37;98989.88;;;5.95;100.00
11525;BME280;5819;49.648;8.330;2022-11-23T01:42:05;98988.34;;;5.91;100.00
11525;BME280;5819;49.648;8.330;2022-11-23T01:44:35;98987.63;;;6.06;100.00
11525;BME280;5819;49.648;8.330;2022-11-23T01:47:05;98990.06;;;5.91;100.00
11525;BME280;5819;49.648;8.330;2022-11-23T01:49:37;98992.81;;;5.88;100.00
11525;BME280;5819;49.648;8.330;2022-11-23T01:52:09;98988.22;;;6.13;100.00
11525;BME280;5819;49.648;8.330;2022-11-23T01:54:40;98999.50;;;5.92;100.00
11525;BME280;5819;49.648;8.330;2022-11-23T01:57:15;98996.03;;;5.93;100.00
11525;BME280;5819;49.648;8.330;2022-11-23T01:59:45;98992.66;;;5.91;100.00
11525;BME280;5819;49.648;8.330;2022-11-23T02:02:14;98989.38;;;5.87;100.00
11525;BME280;5819;49.648;8.330;2022-11-23T02:04:43;98997.13;;;5.87;100.00
11525;BME280;5819;49.648;8.330;2022-11-23T02:07:15;98997.75;;;5.92;100.00
11525;BME280;5819;49.648;8.330;2022-11-23T02:09:44;99000.88;;;5.99;100.00
11525;BME280;5819;49.648;8.330;2022-11-23T02:12:13;99001.03;;;5.96;100.00
11525;BME280;5819;49.648;8.330;2022-11-23T02:14:43;99006.25;;;5.94;100.00
11525;BME280;5819;49.648;8.330;2022-11-23T02:17:11;99005.09;;;6.01;100.00
11525;BME280;5819;49.648;8.330;2022-11-23T02:19:44;99007.03;;;5.96;100.00
11525;BME280;5819;49.648;8.330;2022-11-23T02:22:23;99007.25;;;5.92;100.00
11525;BME280;5819;49.648;8.330;2022-11-23T02:24:54;99006.41;;;5.91;100.00
11525;BME280;5819;49.648;8.330;2022-11-23T02:27:25;99004.81;;;5.89;100.00
11525;BME280;5819;49.648;8.330;2022-11-23T02:29:57;99007.31;;;5.90;100.00
11525;BME280;5819;49.648;8.330;2022-11-23T02:32:26;99011.56;;;5.91;100.00
11525;BME280;5819;49.648;8.330;2022-11-23T02:34:55;98998.81;;;5.88;100.00
11525;BME280;5819;49.648;8.330;2022-11-23T02:37:22;99003.06;;;5.89;100.00
11525;BME280;5819;49.648;8.330;2022-11-23T02:39:52;99000.56;;;5.88;100.00
11525;BME280;5819;49.648;8.330;2022-11-23T02:42:21;98990.34;;;5.85;100.00
11525;BME280;5819;49.648;8.330;2022-11-23T02:44:59;98988.88;;;5.79;100.00
11525;BME280;5819;49.648;8.330;2022-11-23T02:47:31;98993.06;;;5.82;100.00
11525;BME280;5819;49.648;8.330;2022-11-23T02:49:59;98986.03;;;5.85;100.00
11525;BME280;5819;49.648;8.330;2022-11-23T02:52:27;98996.41;;;5.84;100.00
11525;BME280;5819;49.648;8.330;2022-11-23T02:54:55;98992.91;;;5.85;100.00
11525;BME280;5819;49.648;8.330;2022-11-23T02:57:23;98994.50;;;5.89;100.00
11525;BME280;5819;49.648;8.330;2022-11-23T02:59:52;98987.59;;;5.89;100.00
11525;BME280;5819;49.648;8.330;2022-11-23T03:02:20;98989.19;;;5.92;100.00
11525;BME280;5819;49.648;8.330;2022-11-23T03:04:48;98991.56;;;5.96;100.00
11525;BME280;5819;49.648;8.330;2022-11-23T03:07:18;98983.97;;;5.93;100.00
11525;BME280;5819;49.648;8.330;2022-11-23T03:09:48;98990.72;;;5.96;100.00
11525;BME280;5819;49.648;8.330;2022-11-23T03:12:18;98988.13;;;5.96;100.00
11525;BME280;5819;49.648;8.330;2022-11-23T03:14:46;98992.47;;;5.95;100.00
11525;BME280;5819;49.648;8.330;2022-11-23T03:17:17;98991.56;;;5.96;100.00
11525;BME280;5819;49.648;8.330;2022-11-23T03:19:45;98989.66;;;6.00;100.00
11525;BME280;5819;49.648;8.330;2022-11-23T03:22:13;98991.41;;;5.99;100.00
11525;BME280;5819;49.648;8.330;2022-11-23T03:24:41;98998.16;;;6.02;100.00
11525;BME280;5819;49.648;8.330;2022-11-23T03:27:14;98997.13;;;6.06;100.00
11525;BME280;5819;49.648;8.330;2022-11-23T03:29:43;98998.88;;;6.05;100.00
11525;BME280;5819;49.648;8.330;2022-11-23T03:32:17;98997.97;;;6.06;100.00
11525;BME280;5819;49.648;8.330;2022-11-23T03:34:49;98997.25;;;6.03;100.00
11525;BME280;5819;49.648;8.330;2022-11-23T03:37:19;98993.94;;;6.01;100.00
11525;BME280;5819;49.648;8.330;2022-11-23T03:39:47;98996.50;;;6.01;100.00
11525;BME280;5819;49.648;8.330;2022-11-23T03:42:20;98999.09;;;6.01;100.00
11525;BME280;5819;49.648;8.330;2022-11-23T03:44:49;98993.94;;;6.01;100.00
11525;BME280;5819;49.648;8.330;2022-11-23T03:47:19;98991.25;;;6.02;100.00
11525;BME280;5819;49.648;8.330;2022-11-23T03:49:47;98988.78;;;6.01;100.00
11525;BME280;5819;49.648;8.330;2022-11-23T03:52:14;98993.72;;;6.05;100.00
11525;BME280;5819;49.648;8.330;2022-11-23T03:54:43;99001.69;;;6.01;100.00
11525;BME280;5819;49.648;8.330;2022-11-23T03:57:12;98999.94;;;6.01;100.00
11525;BME280;5819;49.648;8.330;2022-11-23T03:59:40;99006.84;;;6.01;100.00
11525;BME280;5819;49.648;8.330;2022-11-23T04:02:08;99004.25;;;6.01;100.00
11525;BME280;5819;49.648;8.330;2022-11-23T04:04:46;99002.56;;;6.00;100.00
11525;BME280;5819;49.648;8.330;2022-11-23T04:07:32;98999.09;;;6.01;100.00
11525;BME280;5819;49.648;8.330;2022-11-23T04:10:04;99002.50;;;6.01;100.00
11525;BME280;5819;49.648;8.330;2022-11-23T04:12:50;98999.00;;;6.02;100.00
11525;BME280;5819;49.648;8.330;2022-11-23T04:15:19;98998.16;;;6.02;100.00
11525;BME280;5819;49.648;8.330;2022-11-23T04:17:47;99006.41;;;6.10;100.00
11525;BME280;5819;49.648;8.330;2022-11-23T04:20:17;98997.97;;;6.06;100.00
11525;BME280;5819;49.648;8.330;2022-11-23T04:22:44;98996.22;;;6.07;100.00
11525;BME280;5819;49.648;8.330;2022-11-23T04:25:13;98996.22;;;6.07;100.00
11525;BME280;5819;49.648;8.330;2022-11-23T04:27:41;98994.47;;;6.07;100.00
11525;BME280;5819;49.648;8.330;2022-11-23T04:30:09;98996.16;;;6.08;100.00
11525;BME280;5819;49.648;8.330;2022-11-23T04:32:37;98989.94;;;6.13;100.00
11525;BME280;5819;49.648;8.330;2022-11-23T04:35:05;98990.09;;;6.09;100.00
11525;BME280;5819;49.648;8.330;2022-11-23T04:37:36;98991.75;;;6.10;100.00
11525;BME280;5819;49.648;8.330;2022-11-23T04:40:05;98992.69;;;6.09;100.00
11525;BME280;5819;49.648;8.330;2022-11-23T04:42:44;98990.00;;;6.11;100.00
11525;BME280;5819;49.648;8.330;2022-11-23T04:45:13;98996.06;;;6.10;100.00
11525;BME280;5819;49.648;8.330;2022-11-23T04:47:42;98998.66;;;6.10;100.00
11525;BME280;5819;49.648;8.330;2022-11-23T04:50:12;99000.34;;;6.11;100.00
11525;BME280;5819;49.648;8.330;2022-11-23T04:52:45;98995.59;;;6.21;100.00
11525;BME280;5819;49.648;8.330;2022-11-23T04:55:18;98988.75;;;6.20;100.00
11525;BME280;5819;49.648;8.330;2022-11-23T04:57:55;98991.19;;;6.23;100.00
11525;BME280;5819;49.648;8.330;2022-11-23T05:00:26;98988.66;;;6.40;100.00
11525;BME280;5819;49.648;8.330;2022-11-23T05:02:58;98987.34;;;6.31;100.00
11525;BME280;5819;49.648;8.330;2022-11-23T05:05:29;98992.91;;;6.22;100.00
11525;BME280;5819;49.648;8.330;2022-11-23T05:07:59;98988.75;;;6.20;100.00
11525;BME280;5819;49.648;8.330;2022-11-23T05:10:39;99005.97;;;6.19;100.00
11525;BME280;5819;49.648;8.330;2022-11-23T05:13:07;99002.50;;;6.20;100.00
11525;BME280;5819;49.648;8.330;2022-11-23T05:15:35;98994.91;;;6.17;100.00
11525;BME280;5819;49.648;8.330;2022-11-23T05:18:05;98991.38;;;6.18;100.00
11525;BME280;5819;49.648;8.330;2022-11-23T05:20:35;98994.91;;;6.17;100.00
11525;BME280;5819;49.648;8.330;2022-11-23T05:23:04;99000.06;;;6.17;100.00
11525;BME280;5819;49.648;8.330;2022-11-23T05:25:34;98990.28;;;6.24;100.00
11525;BME280;5819;49.648;8.330;2022-11-23T05:28:04;98998.81;;;6.26;100.00
11525;BME280;5819;49.648;8.330;2022-11-23T05:30:51;99006.97;;;6.17;100.00
11525;BME280;5819;49.648;8.330;2022-11-23T05:33:20;98995.50;;;6.22;100.00
11525;BME280;5819;49.648;8.330;2022-11-23T05:35:48;98996.50;;;6.20;100.00
11525;BME280;5819;49.648;8.330;2022-11-23T05:38:26;99003.59;;;6.15;100.00
11525;BME280;5819;49.648;8.330;2022-11-23T05:40:57;99003.59;;;6.15;100.00
11525;BME280;5819;49.648;8.330;2022-11-23T05:43:25;99002.72;;;6.16;100.00
11525;BME280;5819;49.648;8.330;2022-11-23T05:45:53;98993.16;;;6.18;100.00
11525;BME280;5819;49.648;8.330;2022-11-23T05:48:25;99006.81;;;6.20;100.00
11525;BME280;5819;49.648;8.330;2022-11-23T05:50:56;99005.97;;;6.19;100.00
11525;BME280;5819;49.648;8.330;2022-11-23T05:53:35;99018.88;;;6.19;100.00
11525;BME280;5819;49.648;8.330;2022-11-23T05:56:13;99009.47;;;6.18;100.00
11525;BME280;5819;49.648;8.330;2022-11-23T05:58:54;99005.22;;;6.17;100.00
11525;BME280;5819;49.648;8.330;2022-11-23T06:01:22;99009.69;;;6.14;100.00
11525;BME280;5819;49.648;8.330;2022-11-23T06:03:53;99012.28;;;6.14;100.00
11525;BME280;5819;49.648;8.330;2022-11-23T06:06:22;99013.09;;;6.14;100.00
11525;BME280;5819;49.648;8.330;2022-11-23T06:08:51;99005.34;;;6.14;100.00
11525;BME280;5819;49.648;8.330;2022-11-23T06:11:19;99009.75;;;6.12;100.00
11525;BME280;5819;49.648;8.330;2022-11-23T06:13:46;99008.06;;;6.11;100.00
11525;BME280;5819;49.648;8.330;2022-11-23T06:16:16;99019.19;;;6.13;100.00
11525;BME280;5819;49.648;8.330;2022-11-23T06:18:56;99012.28;;;6.14;100.00
11525;BME280;5819;49.648;8.330;2022-11-23T06:21:24;99007.03;;;6.15;100.00
11525;BME280;5819;49.648;8.330;2022-11-23T06:23:53;99007.88;;;6.16;100.00
11525;BME280;5819;49.648;8.330;2022-11-23T06:26:22;99005.28;;;6.16;100.00
11525;BME280;5819;49.648;8.330;2022-11-23T06:28:50;99011.22;;;6.18;100.00
11525;BME280;5819;49.648;8.330;2022-11-23T06:31:18;99006.19;;;6.15;100.00
11525;BME280;5819;49.648;8.330;2022-11-23T06:33:45;99004.38;;;6.17;100.00
11525;BME280;5819;49.648;8.330;2022-11-23T06:36:13;99003.41;;;6.19;100.00
11525;BME280;5819;49.648;8.330;2022-11-23T06:38:46;99000.97;;;6.16;100.00
11525;BME280;5819;49.648;8.330;2022-11-23T06:41:23;99001.59;;;6.21;100.00
11525;BME280;5819;49.648;8.330;2022-11-23T06:43:58;98999.91;;;6.20;100.00
11525;BME280;5819;49.648;8.330;2022-11-23T06:46:36;99004.38;;;6.17;100.00
11525;BME280;5819;49.648;8.330;2022-11-23T06:49:04;99003.53;;;6.16;100.00
11525;BME280;5819;49.648;8.330;2022-11-23T06:51:32;99009.34;;;6.21;100.00
11525;BME280;5819;49.648;8.330;2022-11-23T06:54:00;99010.19;;;6.22;100.00
11525;BME280;5819;49.648;8.330;2022-11-23T06:56:31;99015.34;;;6.22;100.00
11525;BME280;5819;49.648;8.330;2022-11-23T06:58:59;99024.88;;;6.20;100.00
11525;BME280;5819;49.648;8.330;2022-11-23T07:01:26;99030.75;;;6.23;100.00
11525;BME280;5819;49.648;8.330;2022-11-23T07:04:00;99036.69;;;6.25;100.00
11525;BME280;5819;49.648;8.330;2022-11-23T07:06:32;99030.59;;;6.26;100.00
11525;BME280;5819;49.648;8.330;2022-11-23T07:09:06;99037.59;;;6.24;100.00
11525;BME280;5819;49.648;8.330;2022-11-23T07:11:54;99036.69;;;6.25;100.00
11525;BME280;5819;49.648;8.330;2022-11-23T07:14:21;99028.94;;;6.25;100.00
11525;BME280;5819;49.648;8.330;2022-11-23T07:16:50;99038.50;;;6.23;100.00
11525;BME280;5819;49.648;8.330;2022-11-23T07:19:18;99036.81;;;6.22;100.00
11525;BME280;5819;49.648;8.330;2022-11-23T07:21:49;99037.75;;;6.21;100.00
11525;BME280;5819;49.648;8.330;2022-11-23T07:24:16;99038.78;;;6.17;100.00
11525;BME280;5819;49.648;8.330;2022-11-23T07:26:44;99042.31;;;6.15;100.00
11525;BME280;5819;49.648;8.330;2022-11-23T07:29:14;99039.94;;;6.10;100.00
11525;BME280;5819;49.648;8.330;2022-11-23T07:31:42;99048.75;;;6.06;100.00
11525;BME280;5819;49.648;8.330;2022-11-23T07:34:10;99047.78;;;6.08;100.00
11525;BME280;5819;49.648;8.330;2022-11-23T07:36:38;99051.22;;;6.09;100.00
11525;BME280;5819;49.648;8.330;2022-11-23T07:39:06;99054.53;;;6.11;100.00
11525;BME280;5819;49.648;8.330;2022-11-23T07:41:35;99060.41;;;6.15;100.00
11525;BME280;5819;49.648;8.330;2022-11-23T07:44:06;99055.13;;;6.18;100.00
11525;BME280;5819;49.648;8.330;2022-11-23T07:46:36;99059.34;;;6.19;100.00
11525;BME280;5819;49.648;8.330;2022-11-23T07:49:03;99057.41;;;6.24;100.00
11525;BME280;5819;49.648;8.330;2022-11-23T07:51:31;99058.25;;;6.24;100.00
11525;BME280;5819;49.648;8.330;2022-11-23T07:53:59;99054.81;;;6.24;100.00
11525;BME280;5819;49.648;8.330;2022-11-23T07:56:27;99052.09;;;6.27;100.00
11525;BME280;5819;49.648;8.330;2022-11-23T07:58:55;99057.63;;;6.38;100.00
11525;BME280;5819;49.648;8.330;2022-11-23T08:01:23;99063.28;;;6.46;100.00
11525;BME280;5819;49.648;8.330;2022-11-23T08:03:52;99058.81;;;6.49;100.00
11525;BME280;5819;49.648;8.330;2022-11-23T08:06:26;99053.53;;;6.51;100.00
11525;BME280;5819;49.648;8.330;2022-11-23T08:08:54;99065.63;;;6.50;100.00
11525;BME280;5819;49.648;8.330;2022-11-23T08:11:22;99064.72;;;6.51;100.00
11525;BME280;5819;49.648;8.330;2022-11-23T08:13:50;99058.66;;;6.52;100.00
11525;BME280;5819;49.648;8.330;2022-11-23T08:16:18;99057.44;;;6.59;100.00
11525;BME280;5819;49.648;8.330;2022-11-23T08:18:45;99059.44;;;6.72;100.00
11525;BME280;5819;49.648;8.330;2022-11-23T08:21:17;99057.19;;;6.83;100.00
11525;BME280;5819;49.648;8.330;2022-11-23T08:23:45;99048.91;;;6.76;100.00
11525;BME280;5819;49.648;8.330;2022-11-23T08:26:13;99050.06;;;6.88;100.00
11525;BME280;5819;49.648;8.330;2022-11-23T08:28:40;99055.84;;;6.93;100.00
11525;BME280;5819;49.648;8.330;2022-11-23T08:31:09;99062.00;;;6.90;100.00
11525;BME280;5819;49.648;8.330;2022-11-23T08:33:38;99062.97;;;6.88;100.00
11525;BME280;5819;49.648;8.330;2022-11-23T08:36:07;99066.66;;;7.01;100.00
11525;BME280;5819;49.648;8.330;2022-11-23T08:38:36;99070.00;;;7.03;100.00
11525;BME280;5819;49.648;8.330;2022-11-23T08:41:04;99071.44;;;6.91;100.00
11525;BME280;5819;49.648;8.330;2022-11-23T08:43:32;99065.81;;;7.00;100.00
11525;BME280;5819;49.648;8.330;2022-11-23T08:46:04;99067.28;;;7.06;100.00
11525;BME280;5819;49.648;8.330;2022-11-23T08:48:37;99065.91;;;7.33;100.00
11525;BME280;5819;49.648;8.330;2022-11-23T08:51:05;99066.53;;;7.21;100.00
11525;BME280;5819;49.648;8.330;2022-11-23T08:53:33;99064.69;;;7.23;100.00
11525;BME280;5819;49.648;8.330;2022-11-23T08:56:04;99066.44;;;7.23;100.00
11525;BME280;5819;49.648;8.330;2022-11-23T08:58:33;99058.44;;;7.27;100.00
11525;BME280;5819;49.648;8.330;2022-11-23T09:01:06;99066.13;;;7.29;100.00
11525;BME280;5819;49.648;8.330;2022-11-23T09:03:34;99059.00;;;7.34;100.00
11525;BME280;5819;49.648;8.330;2022-11-23T09:06:02;99059.69;;;7.37;100.00
11525;BME280;5819;49.648;8.330;2022-11-23T09:08:30;99064.28;;;7.48;100.00
11525;BME280;5819;49.648;8.330;2022-11-23T09:10:58;99059.81;;;7.51;100.00
11525;BME280;5819;49.648;8.330;2022-11-23T09:13:28;99059.75;;;7.53;100.00
11525;BME280;5819;49.648;8.330;2022-11-23T09:15:57;99067.72;;;7.66;100.00
11525;BME280;5819;49.648;8.330;2022-11-23T09:18:25;99065.03;;;7.67;100.00
11525;BME280;5819;49.648;8.330;2022-11-23T09:20:53;99063.97;;;7.71;100.00
11525;BME280;5819;49.648;8.330;2022-11-23T09:23:21;99056.91;;;7.90;100.00
11525;BME280;5819;49.648;8.330;2022-11-23T09:25:49;99063.09;;;7.88;100.00
11525;BME280;5819;49.648;8.330;2022-11-23T09:28:16;99060.94;;;7.96;100.00
11525;BME280;5819;49.648;8.330;2022-11-23T09:30:46;99060.53;;;8.04;100.00
11525;BME280;5819;49.648;8.330;2022-11-23T09:33:14;99057.94;;;8.04;100.00
11525;BME280;5819;49.648;8.330;2022-11-23T09:35:42;99060.63;;;8.02;100.00
11525;BME280;5819;49.648;8.330;2022-11-23T09:38:09;99056.97;;;8.06;100.00
11525;BME280;5819;49.648;8.330;2022-11-23T09:40:39;99064.47;;;8.11;100.00
11525;BME280;5819;49.648;8.330;2022-11-23T09:43:16;99060.38;;;8.07;100.00
11525;BME280;5819;49.648;8.330;2022-11-23T09:45:59;99060.91;;;8.13;100.00
11525;BME280;5819;49.648;8.330;2022-11-23T09:48:40;99064.38;;;8.29;100.00
11525;BME280;5819;49.648;8.330;2022-11-23T09:51:14;99058.34;;;8.44;100.00
11525;BME280;5819;49.648;8.330;2022-11-23T09:53:46;99065.63;;;8.54;100.00
11525;BME280;5819;49.648;8.330;2022-11-23T09:56:17;99060.03;;;8.45;100.00
11525;BME280;5819;49.648;8.330;2022-11-23T09:58:49;99058.84;;;8.51;100.00
11525;BME280;5819;49.648;8.330;2022-11-23T10:01:21;99066.28;;;8.57;100.00
11525;BME280;5819;49.648;8.330;2022-11-23T10:03:49;99068.38;;;8.51;100.00
11525;BME280;5819;49.648;8.330;2022-11-23T10:06:19;99051.81;;;8.69;100.00
11525;BME280;5819;49.648;8.330;2022-11-23T10:08:56;99056.25;;;8.67;100.00
11525;BME280;5819;49.648;8.330;2022-11-23T10:11:59;99056.00;;;8.71;100.00
11525;BME280;5819;49.648;8.330;2022-11-23T10:14:41;99042.09;;;8.88;100.00
11525;BME280;5819;49.648;8.330;2022-11-23T10:17:24;99043.50;;;8.93;100.00
11525;BME280;5819;49.648;8.330;2022-11-23T10:20:09;99040.72;;;8.97;100.00
11525;BME280;5819;49.648;8.330;2022-11-23T10:22:43;99044.44;;;8.92;100.00
11525;BME280;5819;49.648;8.330;2022-11-23T10:25:17;99039.63;;;9.01;100.00
11525;BME280;5819;49.648;8.330;2022-11-23T10:27:47;99039.44;;;9.04;100.00
11525;BME280;5819;49.648;8.330;2022-11-23T10:30:17;99037.19;;;9.13;100.00
11525;BME280;5819;49.648;8.330;2022-11-23T10:32:50;99037.44;;;9.09;100.00
11525;BME280;5819;49.648;8.330;2022-11-23T10:35:26;99031.38;;;9.24;100.00
11525;BME280;5819;49.648;8.330;2022-11-23T10:38:04;99030.44;;;9.25;100.00
11525;BME280;5819;49.648;8.330;2022-11-23T10:40:48;99021.38;;;9.32;100.00
11525;BME280;5819;49.648;8.330;2022-11-23T10:43:22;99022.69;;;9.39;100.00
11525;BME280;5819;49.648;8.330;2022-11-23T10:46:22;99028.34;;;9.60;100.00
11525;BME280;5819;49.648;8.330;2022-11-23T10:48:52;99025.38;;;9.52;100.00
11525;BME280;5819;49.648;8.330;2022-11-23T10:51:25;99018.06;;;9.44;100.00
11525;BME280;5819;49.648;8.330;2022-11-23T10:53:57;99020.28;;;9.36;100.00
11525;BME280;5819;49.648;8.330;2022-11-23T10:56:31;99010.47;;;9.55;100.00
11525;BME280;5819;49.648;8.330;2022-11-23T10:58:59;99011.94;;;9.45;100.00
11525;BME280;5819;49.648;8.330;2022-11-23T11:01:27;99005.09;;;9.58;100.00
11525;BME280;5819;49.648;8.330;2022-11-23T11:04:01;99017.41;;;9.40;100.00
11525;BME280;5819;49.648;8.330;2022-11-23T11:06:32;99001.19;;;9.51;100.00
11525;BME280;5819;49.648;8.330;2022-11-23T11:09:03;99006.56;;;9.48;100.00
11525;BME280;5819;49.648;8.330;2022-11-23T11:11:44;98997.97;;;9.62;100.00
11525;BME280;5819;49.648;8.330;2022-11-23T11:14:15;99001.94;;;9.53;100.00
11525;BME280;5819;49.648;8.330;2022-11-23T11:16:47;98995.84;;;9.54;100.00
11525;BME280;5819;49.648;8.330;2022-11-23T11:19:25;98989.25;;;9.63;100.00
11525;BME280;5819;49.648;8.330;2022-11-23T11:21:54;98978.44;;;10.11;100.00
11525;BME280;5819;49.648;8.330;2022-11-23T11:24:27;98983.41;;;9.73;100.00
11525;BME280;5819;49.648;8.330;2022-11-23T11:27:01;98977.91;;;9.92;100.00
11525;BME280;5819;49.648;8.330;2022-11-23T11:29:31;98979.59;;;9.65;100.00
11525;BME280;5819;49.648;8.330;2022-11-23T11:32:08;98973.03;;;9.73;100.00
11525;BME280;5819;49.648;8.330;2022-11-23T11:34:42;98969.28;;;9.63;100.00
11525;BME280;5819;49.648;8.330;2022-11-23T11:37:17;98954.28;;;9.68;100.00
11525;BME280;5819;49.648;8.330;2022-11-23T11:39:53;98955.13;;;9.69;100.00
11525;BME280;5819;49.648;8.330;2022-11-23T11:42:29;98948.25;;;9.68;100.00
11525;BME280;5819;49.648;8.330;2022-11-23T11:45:02;98948.06;;;9.85;100.00
11525;BME280;5819;49.648;8.330;2022-11-23T11:47:36;98949.19;;;9.81;100.00
11525;BME280;5819;49.648;8.330;2022-11-23T11:50:17;98940.09;;;9.74;100.00
11525;BME280;5819;49.648;8.330;2022-11-23T11:52:46;98937.09;;;9.94;100.00
11525;BME280;5819;49.648;8.330;2022-11-23T11:55:21;98935.84;;;10.14;100.00
11525;BME280;5819;49.648;8.330;2022-11-23T11:57:54;98941.06;;;10.00;100.00
11525;BME280;5819;49.648;8.330;2022-11-23T12:00:22;98931.91;;;9.94;100.00
11525;BME280;5819;49.648;8.330;2022-11-23T12:02:58;98936.75;;;9.86;100.00
11525;BME280;5819;49.648;8.330;2022-11-23T12:05:36;98930.97;;;9.95;99.31
11525;BME280;5819;49.648;8.330;2022-11-23T12:08:10;98924.97;;;9.95;99.19
11525;BME280;5819;49.648;8.330;2022-11-23T12:10:42;98926.13;;;10.17;97.42
11525;BME280;5819;49.648;8.330;2022-11-23T12:13:13;98926.97;;;10.18;98.28
11525;BME280;5819;49.648;8.330;2022-11-23T12:15:44;98927.34;;;9.98;98.01
11525;BME280;5819;49.648;8.330;2022-11-23T12:18:49;98916.47;;;10.05;97.60
11525;BME280;5819;49.648;8.330;2022-11-23T12:21:35;98916.84;;;9.99;94.81
11525;BME280;5819;49.648;8.330;2022-11-23T12:24:11;98910.72;;;10.00;94.30
11525;BME280;5819;49.648;8.330;2022-11-23T12:26:49;98916.97;;;9.98;94.15
11525;BME280;5819;49.648;8.330;2022-11-23T12:29:40;98918.25;;;10.19;95.34
11525;BME280;5819;49.648;8.330;2022-11-23T12:32:18;98917.13;;;10.09;97.00
11525;BME280;5819;49.648;8.330;2022-11-23T12:35:02;98913.38;;;10.13;95.21
11525;BME280;5819;49.648;8.330;2022-11-23T12:37:48;98907.34;;;10.12;92.38
11525;BME280;5819;49.648;8.330;2022-11-23T12:40:30;98904.25;;;10.34;92.15
11525;BME280;5819;49.648;8.330;2022-11-23T12:43:00;98907.56;;;10.09;94.19
11525;BME280;5819;49.648;8.330;2022-11-23T12:45:48;98903.00;;;10.13;92.43
11525;BME280;5819;49.648;8.330;2022-11-23T12:48:32;98912.78;;;9.95;92.68
11525;BME280;5819;49.648;8.330;2022-11-23T12:51:12;98904.50;;;10.17;92.63
11525;BME280;5819;49.648;8.330;2022-11-23T12:53:50;98897.84;;;9.99;95.24
11525;BME280;5819;49.648;8.330;2022-11-23T12:56:30;98903.41;;;9.93;93.59
11525;BME280;5819;49.648;8.330;2022-11-23T12:59:09;98901.03;;;9.90;91.50
11525;BME280;5819;49.648;8.330;2022-11-23T13:01:41;98895.84;;;9.90;93.03
11525;BME280;5819;49.648;8.330;2022-11-23T13:04:37;98891.66;;;9.87;91.72
11525;BME280;5819;49.648;8.330;2022-11-23T13:07:45;98891.28;;;9.79;92.20
11525;BME280;5819;49.648;8.330;2022-11-23T13:10:33;98895.34;;;9.83;92.10
11525;BME280;5819;49.648;8.330;2022-11-23T13:18:58;98874.72;;;9.67;94.47
11525;BME280;5819;49.648;8.330;2022-11-23T13:21:36;98883.34;;;9.82;94.65
11525;BME280;5819;49.648;8.330;2022-11-23T13:24:23;98876.59;;;9.65;96.87
11525;BME280;5819;49.648;8.330;2022-11-23T13:30:06;98872.53;;;9.61;97.75
11525;BME280;5819;49.648;8.330;2022-11-23T13:32:50;98866.03;;;9.54;98.94
11525;BME280;5819;49.648;8.330;2022-11-23T13:35:47;98871.47;;;9.64;98.24
11525;BME280;5819;49.648;8.330;2022-11-23T13:38:24;98855.84;;;9.92;95.43
11525;BME280;5819;49.648;8.330;2022-11-23T13:40:52;98858.78;;;9.73;96.41
11525;BME280;5819;49.648;8.330;2022-11-23T13:43:23;98851.34;;;9.67;96.61
11525;BME280;5819;49.648;8.330;2022-11-23T13:46:21;98851.19;;;9.56;98.42